| time (UTC) | temp C | wind direction | speed KPH | gust KPH | rain 1hr cm | rain 24hr cm | rain mn cm | humidity % | barometer mb |
| 20260504232635 | 24 | 112 | 1.6 | 12.9 | 0.00 | 0.00 | 0.00 | 55 | 1016.2 |
| 20260504225635 | 25 | 154 | 1.6 | 17.7 | 0.00 | 0.00 | 0.00 | 51 | 1016.3 |
| 20260504222634 | 26 | 145 | 6.4 | 14.5 | 0.00 | 0.00 | 0.00 | 48 | 1016.8 |
| 20260504215635 | 26 | 150 | 1.6 | 12.9 | 0.00 | 0.00 | 0.00 | 48 | 1016.7 |
| 20260504212634 | 26 | 129 | 4.8 | 16.1 | 0.00 | 0.00 | 0.00 | 44 | 1017.0 |
| 20260504205637 | 26 | 124 | 4.8 | 12.9 | 0.00 | 0.00 | 0.00 | 45 | 1017.1 |
| 20260504202637 | 28 | 112 | 4.8 | 16.1 | 0.00 | 0.00 | 0.00 | 40 | 1017.7 |
| 20260504195634 | 28 | 225 | 0.0 | 1.6 | 0.00 | 0.00 | 0.00 | 40 | 1018.2 |
| 20260504192635 | 28 | 115 | 4.8 | 19.3 | 0.00 | 0.00 | 0.00 | 42 | 1018.3 |
| 20260504185634 | 26 | 141 | 3.2 | 11.3 | 0.00 | 0.00 | 0.00 | 45 | 1018.7 |
| 20260504182634 | 28 | 150 | 1.6 | 16.1 | 0.00 | 0.00 | 0.00 | 43 | 1019.0 |
| 20260504045634 | 16 | 0 | 0.0 | 0.0 | 0.00 | 0.00 | 0.00 | 81 | 1021.1 |
| 20260504042636 | 16 | 0 | 0.0 | 0.0 | 0.00 | 0.00 | 0.00 | 81 | 1021.3 |
| 20260504035634 | 17 | 0 | 0.0 | 0.0 | 0.00 | 0.00 | 0.00 | 83 | 1020.9 |
| 20260504032635 | 17 | 0 | 0.0 | 0.0 | 0.00 | 0.00 | 0.00 | 80 | 1021.1 |
| 20260504025635 | 17 | 0 | 0.0 | 0.0 | 0.00 | 0.00 | 0.00 | 76 | 1020.9 |
| 20260504022635 | 18 | 0 | 0.0 | 0.0 | 0.00 | 0.00 | 0.00 | 70 | 1020.6 |
| 20260504015635 | 19 | 0 | 0.0 | 0.0 | 0.00 | 0.00 | 0.00 | 67 | 1020.3 |
| 20260504012635 | 19 | 0 | 0.0 | 0.0 | 0.00 | 0.00 | 0.00 | 57 | 1020.0 |
| 20260504005634 | 21 | 0 | 0.0 | 0.0 | 0.00 | 0.00 | 0.00 | 51 | 1019.9 |
| 20260504002635 | 23 | 0 | 0.0 | 0.0 | 0.00 | 0.00 | 0.00 | 46 | 1019.7 |
| 20260503235635 | 26 | 0 | 0.0 | 0.0 | 0.00 | 0.00 | 0.00 | 41 | 1019.7 |